Stronghurst, Illinois
Current Conditions -  °F | °C
As of 6:53 PM on Friday 28 Nov 2014 (Local Time) from KBRL Reporting Station
Clear Clear  
Wind Chill: 30°   Ceiling: Unl
Heat Index: 37°   Visibility: 10mi
Dew Point: 32°   Wind: 10mph
Humidity: 82%   Direction: 160°SSE
Pressure: 29.84"   Gusts: NA
Location:  40.75°N, 90.9°W
Report Text: KBRL 290053Z AUTO 16009KT 10SM CLR 03/00 A2984 RMK AO2 SLP112 T00280000
Loading
Personal Weather Stations






























Interactive Weather Map New forecast layout! Learn more

10-Day Weather Forecast

Advertisements
Track Severe Weather on mobile